Time;durP1;ratioP1;P1;durP2;ratioP2;P2;SDS_P1;SDS_P2;PMS_P1;PMS_P2;Temp;Humidity;BMP_temperature;BMP_pressure;BME280_temperature;BME280_humidity;BME280_pressure;Samples;Min_cycle;Max_cycle;Signal;HPM_P1;HPM_P2
2023/07/23 00:00:13;;;;;;;1.75;1.65;;;;;;;;;;4999130;28;20203;-92
2023/07/23 00:02:41;;;;;;;2.47;2.03;;;;;;;;;;5001191;28;20197;-91
2023/07/23 00:05:09;;;;;;;2.15;1.95;;;;;;;;;;5001528;28;20185;-92
2023/07/23 00:07:37;;;;;;;1.73;1.63;;;;;;;;;;5001400;28;20190;-92
2023/07/23 00:10:05;;;;;;;2.90;2.33;;;;;;;;;;5001402;28;20212;-91
2023/07/23 00:12:33;;;;;;;2.95;2.75;;;;;;;;;;5001143;28;20212;-93
2023/07/23 00:15:02;;;;;;;3.42;2.28;;;;;;;;;;5001294;28;20181;-91
2023/07/23 00:17:30;;;;;;;1.80;1.70;;;;;;;;;;5001248;28;20208;-93
2023/07/23 00:19:58;;;;;;;1.92;1.83;;;;;;;;;;5001072;28;20200;-92
2023/07/23 00:22:26;;;;;;;2.17;1.98;;;;;;;;;;5008918;28;20228;-93
2023/07/23 00:24:56;;;;;;;2.63;2.42;;;;;;;;;;5020500;28;20198;-92
2023/07/23 00:27:24;;;;;;;1.60;1.50;;;;;;;;;;5020623;28;20184;-92
2023/07/23 00:29:52;;;;;;;2.60;2.30;;;;;;;;;;5020577;28;20188;-92
2023/07/23 00:32:21;;;;;;;1.90;1.80;;;;;;;;;;5020320;28;20196;-91
2023/07/23 00:34:48;;;;;;;2.72;1.80;;;;;;;;;;5020475;28;20194;-94
2023/07/23 00:37:16;;;;;;;1.70;1.55;;;;;;;;;;5020445;28;20188;-92
2023/07/23 00:39:44;;;;;;;1.65;1.50;;;;;;;;;;5020391;28;20264;-94
2023/07/23 00:42:12;;;;;;;2.60;1.77;;;;;;;;;;5020032;28;20188;-93
2023/07/23 00:44:39;;;;;;;2.08;1.23;;;;;;;;;;5020333;28;20191;-93
2023/07/23 00:47:07;;;;;;;1.77;1.67;;;;;;;;;;5020280;28;20199;-93
2023/07/23 00:49:36;;;;;;;1.50;1.40;;;;;;;;;;5020271;28;20191;-92
2023/07/23 00:52:06;;;;;;;1.80;1.70;;;;;;;;;;5019495;28;20234;-92
2023/07/23 00:54:34;;;;;;;2.20;1.95;;;;;;;;;;5019809;28;20199;-92
2023/07/23 00:57:03;;;;;;;1.48;1.38;;;;;;;;;;5020062;28;20187;-92
2023/07/23 00:59:32;;;;;;;1.33;1.23;;;;;;;;;;5020065;28;20179;-93
2023/07/23 01:02:00;;;;;;;1.73;1.40;;;;;;;;;;5019452;28;20215;-92
2023/07/23 01:04:28;;;;;;;1.70;1.60;;;;;;;;;;5019968;28;20180;-92
2023/07/23 01:06:57;;;;;;;1.85;1.75;;;;;;;;;;5019851;28;20251;-94
2023/07/23 01:09:26;;;;;;;2.45;1.67;;;;;;;;;;5019786;28;20191;-93
2023/07/23 01:11:55;;;;;;;1.55;1.45;;;;;;;;;;5019471;28;20198;-92
2023/07/23 01:14:22;;;;;;;1.60;1.50;;;;;;;;;;5019783;28;20188;-93
2023/07/23 01:16:50;;;;;;;1.35;1.25;;;;;;;;;;5019768;28;20180;-93
2023/07/23 01:19:18;;;;;;;1.63;1.52;;;;;;;;;;5019617;28;20195;-92
2023/07/23 01:21:46;;;;;;;1.60;1.50;;;;;;;;;;5018800;28;20256;-92
2023/07/23 01:24:15;;;;;;;2.17;1.77;;;;;;;;;;5003089;28;20198;-92
2023/07/23 01:26:42;;;;;;;2.15;1.95;;;;;;;;;;4999982;28;20180;-92
2023/07/23 01:29:10;;;;;;;1.80;1.70;;;;;;;;;;4999957;28;20184;-95
2023/07/23 01:31:38;;;;;;;1.67;1.58;;;;;;;;;;4999515;28;20276;-94
2023/07/23 01:34:07;;;;;;;1.83;1.73;;;;;;;;;;4999840;28;20195;-92
2023/07/23 01:36:35;;;;;;;1.77;1.67;;;;;;;;;;4999830;28;20181;-93
2023/07/23 01:39:03;;;;;;;1.10;1.10;;;;;;;;;;4999753;28;20204;-94
2023/07/23 01:41:32;;;;;;;1.70;1.60;;;;;;;;;;4999423;28;20215;-95
2023/07/23 01:44:00;;;;;;;1.92;1.83;;;;;;;;;;4999688;28;20184;-94
2023/07/23 01:46:28;;;;;;;1.35;1.25;;;;;;;;;;4999500;28;20184;-93
2023/07/23 01:48:55;;;;;;;1.80;1.70;;;;;;;;;;4999576;28;20192;-95
2023/07/23 01:51:23;;;;;;;1.45;1.35;;;;;;;;;;4999260;28;20217;-94
2023/07/23 01:53:51;;;;;;;2.13;1.92;;;;;;;;;;5005376;28;20196;-95
2023/07/23 01:56:18;;;;;;;2.53;2.13;;;;;;;;;;4999363;28;20192;-94
2023/07/23 01:58:47;;;;;;;1.27;1.17;;;;;;;;;;4999342;28;20200;-94
2023/07/23 02:01:15;;;;;;;1.30;1.20;;;;;;;;;;4998813;28;20212;-94
2023/07/23 02:03:42;;;;;;;1.67;1.58;;;;;;;;;;4999370;28;20191;-95
2023/07/23 02:06:10;;;;;;;1.70;1.60;;;;;;;;;;4999295;28;20184;-96
2023/07/23 02:08:38;;;;;;;1.17;1.17;;;;;;;;;;4999232;28;20195;-94
2023/07/23 02:11:06;;;;;;;1.50;1.40;;;;;;;;;;4998851;28;20219;-94
2023/07/23 02:13:33;;;;;;;1.77;1.67;;;;;;;;;;4999193;28;20200;-96
2023/07/23 02:16:03;;;;;;;1.95;1.33;;;;;;;;;;4999066;28;20187;-93
2023/07/23 02:18:31;;;;;;;2.33;1.60;;;;;;;;;;4999104;28;20301;-96
2023/07/23 02:20:59;;;;;;;1.50;1.40;;;;;;;;;;4998678;28;20220;-95
2023/07/23 02:23:26;;;;;;;1.70;1.60;;;;;;;;;;5004674;28;20211;-95
2023/07/23 02:25:54;;;;;;;1.73;1.60;;;;;;;;;;4998912;28;20223;-95
2023/07/23 02:28:22;;;;;;;1.75;1.65;;;;;;;;;;4998937;28;20180;-94
2023/07/23 02:30:57;;;;;;;1.48;1.38;;;;;;;;;;4998679;28;20192;-94
2023/07/23 02:33:27;;;;;;;1.67;1.58;;;;;;;;;;4998855;28;20276;-95
2023/07/23 02:35:55;;;;;;;1.70;1.60;;;;;;;;;;4998765;28;20181;-95
2023/07/23 02:38:22;;;;;;;1.60;1.50;;;;;;;;;;4998842;28;20200;-94
2023/07/23 02:40:50;;;;;;;2.08;1.90;;;;;;;;;;4998389;28;20203;-94
2023/07/23 02:43:18;;;;;;;1.90;1.75;;;;;;;;;;4998641;28;20188;-94
2023/07/23 02:45:46;;;;;;;1.60;1.50;;;;;;;;;;4998741;28;20200;-95
2023/07/23 02:48:13;;;;;;;1.60;1.50;;;;;;;;;;4998769;28;20195;-94
2023/07/23 02:50:42;;;;;;;1.90;1.80;;;;;;;;;;4998278;28;20219;-95
2023/07/23 02:53:10;;;;;;;2.22;2.05;;;;;;;;;;5006157;28;20196;-94
2023/07/23 02:55:38;;;;;;;1.98;1.60;;;;;;;;;;5017868;28;20191;-96
2023/07/23 02:58:05;;;;;;;1.65;1.55;;;;;;;;;;5018056;28;20223;-94
2023/07/23 03:00:33;;;;;;;1.90;1.20;;;;;;;;;;5017474;28;20187;-95
2023/07/23 03:03:01;;;;;;;1.40;1.30;;;;;;;;;;5018108;28;20204;-94
2023/07/23 03:05:28;;;;;;;1.42;1.33;;;;;;;;;;5017984;28;20200;-94
2023/07/23 03:07:57;;;;;;;1.88;1.77;;;;;;;;;;5017963;28;20180;-93
2023/07/23 03:10:25;;;;;;;2.13;2.03;;;;;;;;;;5017767;28;20188;-94
2023/07/23 03:12:52;;;;;;;1.42;1.33;;;;;;;;;;5017967;28;20191;-95
2023/07/23 03:15:20;;;;;;;1.98;1.77;;;;;;;;;;5017830;28;20184;-95
2023/07/23 03:17:48;;;;;;;1.75;1.63;;;;;;;;;;5017962;28;20194;-94
2023/07/23 03:20:16;;;;;;;1.85;1.50;;;;;;;;;;5017691;28;20184;-94
2023/07/23 03:22:43;;;;;;;1.58;1.48;;;;;;;;;;5013411;28;20255;-94
2023/07/23 03:25:12;;;;;;;1.40;1.30;;;;;;;;;;4998221;28;20192;-93
2023/07/23 03:27:40;;;;;;;1.48;1.38;;;;;;;;;;4998258;28;20180;-93
2023/07/23 03:30:09;;;;;;;1.50;1.40;;;;;;;;;;4998261;28;20196;-94
2023/07/23 03:32:37;;;;;;;1.20;1.10;;;;;;;;;;4998067;28;20203;-94
2023/07/23 03:35:05;;;;;;;1.10;1.10;;;;;;;;;;4999345;28;20184;-94
2023/07/23 03:37:33;;;;;;;1.55;1.45;;;;;;;;;;5002102;28;20216;-94
2023/07/23 03:40:00;;;;;;;1.60;1.50;;;;;;;;;;5005822;28;20200;-94
2023/07/23 03:42:29;;;;;;;1.95;1.83;;;;;;;;;;5012430;28;20240;-93
2023/07/23 03:44:57;;;;;;;1.55;1.45;;;;;;;;;;5013589;28;20211;-93
2023/07/23 03:47:24;;;;;;;1.50;1.40;;;;;;;;;;5013099;28;20213;-94
2023/07/23 03:49:52;;;;;;;1.70;1.60;;;;;;;;;;5013349;28;20215;-95
2023/07/23 03:52:20;;;;;;;2.22;2.10;;;;;;;;;;5013040;28;20211;-94
2023/07/23 03:54:47;;;;;;;1.63;1.52;;;;;;;;;;5013331;28;20207;-96
2023/07/23 03:57:15;;;;;;;1.70;1.60;;;;;;;;;;5013541;28;20199;-94
2023/07/23 03:59:47;;;;;;;2.42;2.22;;;;;;;;;;5013229;28;20195;-94
2023/07/23 04:02:14;;;;;;;1.67;1.58;;;;;;;;;;5012903;28;20235;-94
2023/07/23 04:04:43;;;;;;;1.65;1.55;;;;;;;;;;5012783;28;20203;-96
2023/07/23 04:07:10;;;;;;;2.35;2.15;;;;;;;;;;5012493;28;20215;-94
2023/07/23 04:09:38;;;;;;;1.83;1.70;;;;;;;;;;5012228;28;20196;-93
2023/07/23 04:12:07;;;;;;;2.15;1.92;;;;;;;;;;5011081;28;20227;-94
2023/07/23 04:14:42;;;;;;;1.70;1.60;;;;;;;;;;5011644;28;20187;-93
2023/07/23 04:17:11;;;;;;;3.28;2.20;;;;;;;;;;5011501;28;20196;-95
2023/07/23 04:19:39;;;;;;;2.50;2.30;;;;;;;;;;5012382;28;20203;-94
2023/07/23 04:22:06;;;;;;;3.58;2.38;;;;;;;;;;5011293;28;20247;-94
2023/07/23 04:24:34;;;;;;;2.58;2.22;;;;;;;;;;5012145;28;20211;-94
2023/07/23 04:27:01;;;;;;;2.50;2.30;;;;;;;;;;5011809;28;20196;-95
2023/07/23 04:29:29;;;;;;;3.35;2.28;;;;;;;;;;5011146;28;20214;-94
2023/07/23 04:31:57;;;;;;;2.40;2.20;;;;;;;;;;5011192;28;20223;-94
2023/07/23 04:34:26;;;;;;;1.85;1.75;;;;;;;;;;5011642;28;20195;-96
2023/07/23 04:36:53;;;;;;;2.25;1.98;;;;;;;;;;5012088;28;20202;-95
2023/07/23 04:39:21;;;;;;;2.40;2.20;;;;;;;;;;5011705;28;20219;-94
2023/07/23 04:41:49;;;;;;;2.60;2.40;;;;;;;;;;5011640;28;20719;-94
2023/07/23 04:44:16;;;;;;;2.55;2.33;;;;;;;;;;5012255;28;20216;-94
2023/07/23 04:46:44;;;;;;;3.95;2.40;;;;;;;;;;5010960;28;20216;-95
2023/07/23 04:49:11;;;;;;;2.42;2.22;;;;;;;;;;5011080;28;20192;-95
2023/07/23 04:51:41;;;;;;;2.20;2.00;;;;;;;;;;5010669;28;20222;-94
2023/07/23 04:54:08;;;;;;;2.95;2.25;;;;;;;;;;5011322;28;20196;-96
2023/07/23 04:56:37;;;;;;;1.92;1.80;;;;;;;;;;5011590;28;20198;-93
2023/07/23 04:59:05;;;;;;;2.20;1.70;;;;;;;;;;5011231;28;20191;-94
2023/07/23 05:01:33;;;;;;;2.03;1.90;;;;;;;;;;5010567;28;20219;-93
2023/07/23 05:04:01;;;;;;;2.00;1.90;;;;;;;;;;5011442;28;20287;-94
2023/07/23 05:06:29;;;;;;;1.67;1.58;;;;;;;;;;5011852;28;20206;-93
2023/07/23 05:08:57;;;;;;;1.73;1.63;;;;;;;;;;5011864;28;20254;-96
2023/07/23 05:11:25;;;;;;;2.10;1.90;;;;;;;;;;5011056;28;20249;-95
2023/07/23 05:13:53;;;;;;;3.72;2.58;;;;;;;;;;5011718;28;20188;-95
2023/07/23 05:16:20;;;;;;;1.90;1.80;;;;;;;;;;5011417;28;20348;-94
2023/07/23 05:18:48;;;;;;;2.47;2.28;;;;;;;;;;5011174;28;20200;-95
2023/07/23 05:21:16;;;;;;;1.90;1.80;;;;;;;;;;5010618;28;20204;-94
2023/07/23 05:23:43;;;;;;;1.70;1.60;;;;;;;;;;5010586;28;20242;-94
2023/07/23 05:26:13;;;;;;;1.70;1.60;;;;;;;;;;5010715;28;20192;-93
2023/07/23 05:28:41;;;;;;;1.80;1.70;;;;;;;;;;5010323;28;20207;-93
2023/07/23 05:31:08;;;;;;;2.13;2.03;;;;;;;;;;5010447;28;20224;-95
2023/07/23 05:33:36;;;;;;;1.80;1.70;;;;;;;;;;5010324;28;20195;-92
2023/07/23 05:36:04;;;;;;;2.13;1.92;;;;;;;;;;5010556;28;20187;-94
2023/07/23 05:38:31;;;;;;;2.20;2.05;;;;;;;;;;5009940;28;20212;-94
2023/07/23 05:40:59;;;;;;;1.88;1.77;;;;;;;;;;5007769;28;20211;-94
2023/07/23 05:43:29;;;;;;;2.42;2.22;;;;;;;;;;5008483;28;20212;-94
2023/07/23 05:45:57;;;;;;;2.85;2.65;;;;;;;;;;5013804;28;20188;-93
2023/07/23 05:48:25;;;;;;;2.17;1.95;;;;;;;;;;4999611;28;20211;-95
2023/07/23 05:50:53;;;;;;;2.70;2.50;;;;;;;;;;4999320;28;20215;-95
2023/07/23 05:53:20;;;;;;;2.65;1.98;;;;;;;;;;4999418;28;20212;-93
2023/07/23 05:55:48;;;;;;;2.60;2.40;;;;;;;;;;5000156;28;20191;-94
2023/07/23 05:58:15;;;;;;;2.97;2.70;;;;;;;;;;4998516;28;20188;-94
2023/07/23 06:00:45;;;;;;;2.72;2.53;;;;;;;;;;4998714;28;20258;-95
2023/07/23 06:03:12;;;;;;;2.30;2.10;;;;;;;;;;4999280;28;20223;-95
2023/07/23 06:05:42;;;;;;;2.70;2.50;;;;;;;;;;4999240;28;20220;-96
2023/07/23 06:08:09;;;;;;;2.55;2.17;;;;;;;;;;4999289;28;20181;-95
2023/07/23 06:10:41;;;;;;;2.50;2.30;;;;;;;;;;4998899;28;20185;-95
2023/07/23 06:13:09;;;;;;;2.60;2.33;;;;;;;;;;4999197;28;20185;-95
2023/07/23 06:15:37;;;;;;;2.50;2.30;;;;;;;;;;4998990;28;20184;-92
2023/07/23 06:18:06;;;;;;;2.35;2.15;;;;;;;;;;4999294;28;20191;-96
2023/07/23 06:20:34;;;;;;;5.38;2.42;;;;;;;;;;4998687;28;20192;-94
2023/07/23 06:23:02;;;;;;;2.30;2.10;;;;;;;;;;4998970;28;20181;-95
2023/07/23 06:25:30;;;;;;;2.40;2.30;;;;;;;;;;4998937;28;20180;-95
2023/07/23 06:27:57;;;;;;;1.85;1.75;;;;;;;;;;5002738;28;20215;-95
2023/07/23 06:30:25;;;;;;;2.60;2.38;;;;;;;;;;4998620;28;20192;-95
2023/07/23 06:32:53;;;;;;;2.38;2.17;;;;;;;;;;4999006;28;20188;-95
2023/07/23 06:35:25;;;;;;;3.25;2.78;;;;;;;;;;4998846;28;20180;-95
2023/07/23 06:37:52;;;;;;;2.17;1.98;;;;;;;;;;4998897;28;20196;-95
2023/07/23 06:40:20;;;;;;;2.50;2.30;;;;;;;;;;4998530;28;20213;-93
2023/07/23 06:42:48;;;;;;;2.95;2.65;;;;;;;;;;4998803;28;20185;-94
2023/07/23 06:45:16;;;;;;;2.75;2.55;;;;;;;;;;4998586;28;20208;-94
2023/07/23 06:47:44;;;;;;;2.70;2.50;;;;;;;;;;4998718;28;20235;-93
2023/07/23 06:50:12;;;;;;;2.50;2.30;;;;;;;;;;4998595;28;20211;-93
2023/07/23 06:52:41;;;;;;;2.90;2.70;;;;;;;;;;4998431;28;20204;-95
2023/07/23 06:55:09;;;;;;;4.50;2.65;;;;;;;;;;4998857;28;20176;-93
2023/07/23 06:57:38;;;;;;;2.58;2.35;;;;;;;;;;5010580;28;20188;-95
2023/07/23 07:00:08;;;;;;;2.70;2.45;;;;;;;;;;5013479;28;20204;-94
2023/07/23 07:02:36;;;;;;;2.53;2.33;;;;;;;;;;5018365;28;20192;-94
2023/07/23 07:05:04;;;;;;;2.67;2.00;;;;;;;;;;5018330;28;20220;-95
2023/07/23 07:07:35;;;;;;;2.67;2.47;;;;;;;;;;5018359;28;20179;-95
2023/07/23 07:10:04;;;;;;;2.72;2.53;;;;;;;;;;5021026;28;20210;-95
2023/07/23 07:12:32;;;;;;;2.72;2.53;;;;;;;;;;5021875;28;20191;-95
2023/07/23 07:15:00;;;;;;;2.90;2.70;;;;;;;;;;5021940;28;20176;-94
2023/07/23 07:17:43;;;;;;;3.10;2.63;;;;;;;;;;5021935;28;20176;-95
2023/07/23 07:20:11;;;;;;;2.47;2.28;;;;;;;;;;5021846;28;20195;-93
2023/07/23 07:22:39;;;;;;;2.80;2.50;;;;;;;;;;5021738;28;20196;-94
2023/07/23 07:25:09;;;;;;;2.42;2.22;;;;;;;;;;5021731;28;20203;-94
2023/07/23 07:27:36;;;;;;;2.97;2.30;;;;;;;;;;5010773;28;20188;-96
2023/07/23 07:30:05;;;;;;;3.00;2.70;;;;;;;;;;5002066;28;20208;-94
2023/07/23 07:32:33;;;;;;;2.58;2.38;;;;;;;;;;5001878;28;20197;-96
2023/07/23 07:35:01;;;;;;;3.55;3.25;;;;;;;;;;5002135;28;20180;-95
2023/07/23 07:37:28;;;;;;;4.18;2.80;;;;;;;;;;5001912;28;20187;-95
2023/07/23 07:39:59;;;;;;;2.95;2.65;;;;;;;;;;5002019;28;20191;-93
2023/07/23 07:42:28;;;;;;;3.28;2.90;;;;;;;;;;5001610;28;20203;-93
2023/07/23 07:44:56;;;;;;;3.95;2.70;;;;;;;;;;5001806;28;20233;-94
2023/07/23 07:47:27;;;;;;;2.63;2.42;;;;;;;;;;5001826;28;20196;-95
2023/07/23 07:49:55;;;;;;;2.67;2.47;;;;;;;;;;5001823;28;20188;-95
2023/07/23 07:52:23;;;;;;;2.90;2.70;;;;;;;;;;5001468;28;20220;-93
2023/07/23 07:54:50;;;;;;;2.78;2.45;;;;;;;;;;5001746;28;20181;-96
2023/07/23 07:57:19;;;;;;;2.70;2.50;;;;;;;;;;5006039;28;20218;-95
2023/07/23 07:59:49;;;;;;;2.53;2.33;;;;;;;;;;5001572;28;20185;-94
2023/07/23 08:02:18;;;;;;;2.08;1.98;;;;;;;;;;5001183;28;20208;-95
2023/07/23 08:04:46;;;;;;;2.53;2.30;;;;;;;;;;5001366;28;20204;-96
2023/07/23 08:07:14;;;;;;;2.55;2.38;;;;;;;;;;5001532;28;20184;-94
2023/07/23 08:09:44;;;;;;;1.85;1.75;;;;;;;;;;5001524;28;20196;-95
2023/07/23 08:12:13;;;;;;;2.40;2.20;;;;;;;;;;5001119;28;20197;-94
2023/07/23 08:14:41;;;;;;;2.45;2.25;;;;;;;;;;5001343;28;20177;-95
2023/07/23 08:17:12;;;;;;;4.60;1.92;;;;;;;;;;5001273;28;20212;-94
2023/07/23 08:19:40;;;;;;;1.80;1.70;;;;;;;;;;5001366;28;20192;-94
2023/07/23 08:22:10;;;;;;;3.00;2.25;;;;;;;;;;5000294;28;20212;-94
2023/07/23 08:24:38;;;;;;;1.98;1.88;;;;;;;;;;5001028;28;20220;-93
2023/07/23 08:27:08;;;;;;;4.20;2.17;;;;;;;;;;5011656;28;20195;-93
2023/07/23 08:29:36;;;;;;;1.75;1.65;;;;;;;;;;5020473;28;20218;-96
2023/07/23 08:32:05;;;;;;;2.40;2.20;;;;;;;;;;5020241;28;20203;-94
2023/07/23 08:34:34;;;;;;;1.90;1.80;;;;;;;;;;5020568;28;20187;-94
2023/07/23 08:37:03;;;;;;;1.70;1.60;;;;;;;;;;5020551;28;20188;-94
2023/07/23 08:39:32;;;;;;;2.83;2.63;;;;;;;;;;5020488;28;20240;-95
2023/07/23 08:42:24;;;;;;;2.00;1.90;;;;;;;;;;5020180;28;20196;-95
2023/07/23 08:45:24;;;;;;;3.53;2.38;;;;;;;;;;5020361;28;20219;-94
2023/07/23 08:48:02;;;;;;;1.73;1.63;;;;;;;;;;5020290;28;20187;-95
2023/07/23 08:50:31;;;;;;;2.00;1.70;;;;;;;;;;5019925;28;20183;-95
2023/07/23 08:52:58;;;;;;;1.40;1.35;;;;;;;;;;5020158;28;20191;-93
2023/07/23 08:55:26;;;;;;;2.92;1.70;;;;;;;;;;5020171;28;20188;-94
2023/07/23 08:57:54;;;;;;;1.92;1.83;;;;;;;;;;5007000;28;20192;-93
2023/07/23 09:00:27;;;;;;;2.10;2.00;;;;;;;;;;5000274;28;20438;-94
2023/07/23 09:02:55;;;;;;;2.45;1.80;;;;;;;;;;5000436;28;20220;-94
2023/07/23 09:05:22;;;;;;;2.10;1.88;;;;;;;;;;5000384;28;20205;-93
2023/07/23 09:07:51;;;;;;;5.40;2.58;;;;;;;;;;5000428;28;20184;-93
2023/07/23 09:10:20;;;;;;;2.22;2.03;;;;;;;;;;5000294;28;20180;-95
2023/07/23 09:12:48;;;;;;;1.80;1.70;;;;;;;;;;5000316;28;20180;-94
2023/07/23 09:15:16;;;;;;;1.98;1.75;;;;;;;;;;5000185;28;20183;-94
2023/07/23 09:17:45;;;;;;;2.33;2.13;;;;;;;;;;5000293;28;20184;-95
2023/07/23 09:20:13;;;;;;;1.95;1.85;;;;;;;;;;5000124;28;20212;-94
2023/07/23 09:22:41;;;;;;;1.92;1.83;;;;;;;;;;4999950;28;20211;-95
2023/07/23 09:25:10;;;;;;;1.88;1.77;;;;;;;;;;5000039;28;20204;-94
2023/07/23 09:27:39;;;;;;;2.15;2.05;;;;;;;;;;5012620;28;20247;-95
2023/07/23 09:30:08;;;;;;;1.58;1.45;;;;;;;;;;4999928;28;20201;-94
2023/07/23 09:32:35;;;;;;;2.33;1.73;;;;;;;;;;4998825;28;20196;-95
2023/07/23 09:35:03;;;;;;;2.20;1.77;;;;;;;;;;4999898;28;20188;-96
2023/07/23 09:37:33;;;;;;;4.43;2.35;;;;;;;;;;4999860;28;20184;-95
2023/07/23 09:40:01;;;;;;;2.70;2.50;;;;;;;;;;4999829;28;20214;-94
2023/07/23 09:42:30;;;;;;;2.55;2.22;;;;;;;;;;4999621;28;20192;-95
2023/07/23 09:45:01;;;;;;;1.90;1.80;;;;;;;;;;4999635;28;20184;-93
2023/07/23 09:47:29;;;;;;;1.63;1.52;;;;;;;;;;4999723;28;20195;-93
2023/07/23 09:49:57;;;;;;;1.95;1.85;;;;;;;;;;4999619;28;20232;-94
2023/07/23 09:52:33;;;;;;;2.03;1.75;;;;;;;;;;4999228;28;20204;-94
2023/07/23 09:55:02;;;;;;;9.20;3.88;;;;;;;;;;4999537;28;20203;-94
2023/07/23 09:57:33;;;;;;;1.95;1.85;;;;;;;;;;5013129;28;20195;-94
2023/07/23 10:00:01;;;;;;;2.22;1.83;;;;;;;;;;5005589;28;20190;-95
2023/07/23 10:02:29;;;;;;;2.10;1.90;;;;;;;;;;4998862;28;20212;-95
2023/07/23 10:04:59;;;;;;;2.67;2.28;;;;;;;;;;4999479;28;20192;-93
2023/07/23 10:07:27;;;;;;;2.05;1.85;;;;;;;;;;4999294;28;20207;-93
2023/07/23 10:09:55;;;;;;;2.05;1.60;;;;;;;;;;4999288;28;20184;-91
2023/07/23 10:12:22;;;;;;;1.60;1.50;;;;;;;;;;4999026;28;20260;-94
2023/07/23 10:14:52;;;;;;;2.20;2.10;;;;;;;;;;4999209;28;20204;-94
2023/07/23 10:17:20;;;;;;;2.58;1.98;;;;;;;;;;4999086;28;20180;-94
2023/07/23 10:19:49;;;;;;;1.90;1.80;;;;;;;;;;4999070;28;20211;-94
2023/07/23 10:22:17;;;;;;;4.10;1.90;;;;;;;;;;4998798;28;20204;-94
2023/07/23 10:24:44;;;;;;;1.77;1.67;;;;;;;;;;4999083;28;20188;-94
2023/07/23 10:27:14;;;;;;;1.90;1.80;;;;;;;;;;5003631;28;20211;-92
2023/07/23 10:29:42;;;;;;;1.70;1.60;;;;;;;;;;4998673;28;20200;-92
2023/07/23 10:32:26;;;;;;;2.40;1.80;;;;;;;;;;4998732;28;20197;-94
2023/07/23 10:34:54;;;;;;;2.45;2.25;;;;;;;;;;4998847;28;20220;-93
2023/07/23 10:37:22;;;;;;;2.47;1.65;;;;;;;;;;4998842;28;20187;-93
2023/07/23 10:39:51;;;;;;;1.63;1.50;;;;;;;;;;4998854;28;20305;-93
2023/07/23 10:42:38;;;;;;;2.03;1.92;;;;;;;;;;4998531;28;20188;-95
2023/07/23 10:45:30;;;;;;;2.83;2.25;;;;;;;;;;4998389;28;20204;-93
2023/07/23 10:48:01;;;;;;;2.47;2.28;;;;;;;;;;4993646;28;20216;-95
2023/07/23 10:50:31;;;;;;;2.22;2.03;;;;;;;;;;4998371;28;20240;-94
2023/07/23 10:53:03;;;;;;;2.45;2.25;;;;;;;;;;4998599;28;20195;-94
2023/07/23 10:55:41;;;;;;;3.17;2.88;;;;;;;;;;4998618;28;20232;-94
2023/07/23 10:58:12;;;;;;;2.13;1.80;;;;;;;;;;5003269;28;20196;-95
2023/07/23 11:00:44;;;;;;;1.73;1.63;;;;;;;;;;5016355;28;20191;-94
2023/07/23 11:03:16;;;;;;;2.35;2.17;;;;;;;;;;5018023;28;20244;-94
2023/07/23 11:05:44;;;;;;;2.60;2.40;;;;;;;;;;5018008;28;20200;-93
2023/07/23 11:08:19;;;;;;;3.17;2.70;;;;;;;;;;5018060;28;20183;-93
2023/07/23 11:10:56;;;;;;;2.50;2.30;;;;;;;;;;5017771;28;20191;-94
2023/07/23 11:13:29;;;;;;;3.45;3.15;;;;;;;;;;5018004;28;20203;-93
2023/07/23 11:15:57;;;;;;;2.58;2.38;;;;;;;;;;5018024;28;20188;-93
2023/07/23 11:18:28;;;;;;;2.60;2.40;;;;;;;;;;5017950;28;20180;-94
2023/07/23 11:20:57;;;;;;;3.15;2.85;;;;;;;;;;5017664;28;20215;-94
2023/07/23 11:23:26;;;;;;;2.88;2.50;;;;;;;;;;5017836;28;20184;-96
2023/07/23 11:25:54;;;;;;;3.35;3.05;;;;;;;;;;5017539;28;20182;-94
2023/07/23 11:28:22;;;;;;;3.35;2.75;;;;;;;;;;5001860;28;20188;-94
2023/07/23 11:30:52;;;;;;;3.28;3.03;;;;;;;;;;4998160;28;20192;-94
2023/07/23 11:33:22;;;;;;;2.90;2.70;;;;;;;;;;4998179;28;20192;-95
2023/07/23 11:35:51;;;;;;;3.25;2.65;;;;;;;;;;4998219;28;20176;-94
2023/07/23 11:38:19;;;;;;;3.22;3.03;;;;;;;;;;4998263;28;20196;-94
2023/07/23 11:40:57;;;;;;;3.08;2.65;;;;;;;;;;4997970;28;20196;-93
2023/07/23 11:43:25;;;;;;;2.55;2.35;;;;;;;;;;4998238;28;20297;-95
2023/07/23 11:45:52;;;;;;;2.50;2.30;;;;;;;;;;4998188;28;20187;-94
2023/07/23 11:48:22;;;;;;;2.90;2.60;;;;;;;;;;4998082;28;20196;-94
2023/07/23 11:50:53;;;;;;;2.35;2.15;;;;;;;;;;4997876;28;20213;-96
2023/07/23 11:53:37;;;;;;;3.50;2.40;;;;;;;;;;4998083;28;20193;-93
2023/07/23 11:56:07;;;;;;;2.78;2.58;;;;;;;;;;5001594;28;20213;-94
2023/07/23 11:58:37;;;;;;;3.10;2.28;;;;;;;;;;5021002;28;20188;-95
2023/07/23 12:01:05;;;;;;;2.65;2.45;;;;;;;;;;5020793;28;20199;-95
2023/07/23 12:03:40;;;;;;;3.35;3.08;;;;;;;;;;5021145;28;20183;-95
2023/07/23 12:06:09;;;;;;;2.33;2.13;;;;;;;;;;5021102;28;20246;-94
2023/07/23 12:08:38;;;;;;;2.55;2.20;;;;;;;;;;5021047;28;20431;-96
2023/07/23 12:11:10;;;;;;;2.30;2.10;;;;;;;;;;5020740;28;20235;-95
2023/07/23 12:13:44;;;;;;;2.92;2.63;;;;;;;;;;5020916;28;20180;-95
2023/07/23 12:16:35;;;;;;;2.28;2.08;;;;;;;;;;5021042;28;20251;-94
2023/07/23 12:19:05;;;;;;;2.28;2.08;;;;;;;;;;5020941;28;20188;-94
2023/07/23 12:21:37;;;;;;;2.35;2.15;;;;;;;;;;5020480;28;20192;-94
2023/07/23 12:24:19;;;;;;;1.92;1.83;;;;;;;;;;5020592;28;20191;-93
2023/07/23 12:26:49;;;;;;;2.00;1.80;;;;;;;;;;5020052;28;20221;-94
2023/07/23 12:29:17;;;;;;;2.20;2.00;;;;;;;;;;5020382;28;20194;-94
2023/07/23 12:31:47;;;;;;;2.65;2.33;;;;;;;;;;5020433;28;20204;-94
2023/07/23 12:34:16;;;;;;;2.08;1.95;;;;;;;;;;5020499;28;20184;-94
2023/07/23 12:36:45;;;;;;;2.22;2.03;;;;;;;;;;5020511;28;20203;-95
2023/07/23 12:39:12;;;;;;;2.58;2.38;;;;;;;;;;5020610;28;20187;-94
2023/07/23 12:41:41;;;;;;;2.58;2.38;;;;;;;;;;5020150;28;20191;-93
2023/07/23 12:44:09;;;;;;;1.88;1.77;;;;;;;;;;5020353;28;20187;-94
2023/07/23 12:46:37;;;;;;;2.90;2.60;;;;;;;;;;5020299;28;20180;-93
2023/07/23 12:49:05;;;;;;;2.10;1.90;;;;;;;;;;5020252;28;20194;-94
2023/07/23 12:51:32;;;;;;;2.67;2.35;;;;;;;;;;5019935;28;20199;-94
2023/07/23 12:54:01;;;;;;;2.40;2.20;;;;;;;;;;5019963;28;20188;-95
2023/07/23 12:56:29;;;;;;;2.60;2.40;;;;;;;;;;5019014;28;20204;-95
2023/07/23 12:58:57;;;;;;;2.08;1.90;;;;;;;;;;5000316;28;20203;-96
2023/07/23 13:01:24;;;;;;;3.47;2.35;;;;;;;;;;4999874;28;20199;-94
2023/07/23 13:03:52;;;;;;;2.15;2.05;;;;;;;;;;5000307;28;20185;-95
2023/07/23 13:06:20;;;;;;;3.67;2.85;;;;;;;;;;5000110;28;20205;-94
2023/07/23 13:08:47;;;;;;;3.60;2.60;;;;;;;;;;5000085;28;20289;-94
2023/07/23 13:11:16;;;;;;;4.18;2.08;;;;;;;;;;4999937;28;20199;-95
2023/07/23 13:13:44;;;;;;;1.77;1.67;;;;;;;;;;5000144;28;20189;-94
2023/07/23 13:16:12;;;;;;;2.08;1.85;;;;;;;;;;5000216;28;20185;-94
2023/07/23 13:18:39;;;;;;;1.90;1.80;;;;;;;;;;5000388;28;20205;-94
2023/07/23 13:21:07;;;;;;;1.80;1.70;;;;;;;;;;5000011;28;20192;-96
2023/07/23 13:23:35;;;;;;;1.88;1.77;;;;;;;;;;5000052;28;20185;-94
2023/07/23 13:26:02;;;;;;;1.60;1.50;;;;;;;;;;5002130;28;20185;-95
2023/07/23 13:28:32;;;;;;;2.20;2.00;;;;;;;;;;5019264;28;20223;-94
2023/07/23 13:31:00;;;;;;;1.58;1.48;;;;;;;;;;5019284;28;20195;-96
2023/07/23 13:33:27;;;;;;;1.63;1.52;;;;;;;;;;5019390;28;20243;-94
2023/07/23 13:35:55;;;;;;;1.92;1.83;;;;;;;;;;5019440;28;20188;-96
2023/07/23 13:38:24;;;;;;;1.75;1.65;;;;;;;;;;5019312;28;20192;-95
2023/07/23 13:40:52;;;;;;;3.60;2.03;;;;;;;;;;5018934;28;20195;-94
2023/07/23 13:43:20;;;;;;;1.58;1.48;;;;;;;;;;5019349;28;20195;-94
2023/07/23 13:45:49;;;;;;;2.38;2.17;;;;;;;;;;5019346;28;20194;-94
2023/07/23 13:48:16;;;;;;;1.55;1.45;;;;;;;;;;5019181;28;20200;-95
2023/07/23 13:50:44;;;;;;;2.00;1.90;;;;;;;;;;5018758;28;20206;-93
2023/07/23 13:53:12;;;;;;;1.58;1.48;;;;;;;;;;5018927;28;20211;-94
2023/07/23 13:55:39;;;;;;;3.63;1.95;;;;;;;;;;5018988;28;20187;-93
2023/07/23 13:58:07;;;;;;;1.90;1.80;;;;;;;;;;5004917;28;20196;-95
2023/07/23 14:00:35;;;;;;;3.25;2.15;;;;;;;;;;4998825;28;20219;-92
2023/07/23 14:03:04;;;;;;;2.22;2.03;;;;;;;;;;4999491;28;20181;-95
2023/07/23 14:05:32;;;;;;;1.42;1.38;;;;;;;;;;4999458;28;20180;-96
2023/07/23 14:08:00;;;;;;;1.40;1.30;;;;;;;;;;4999284;28;20232;-94
2023/07/23 14:10:28;;;;;;;1.70;1.60;;;;;;;;;;4999018;28;20188;-94
2023/07/23 14:12:55;;;;;;;1.55;1.45;;;;;;;;;;4999272;28;20204;-95
2023/07/23 14:15:23;;;;;;;1.90;1.80;;;;;;;;;;4999171;28;20181;-94
2023/07/23 14:17:51;;;;;;;1.60;1.50;;;;;;;;;;4999077;28;20200;-96
2023/07/23 14:20:20;;;;;;;1.73;1.63;;;;;;;;;;4998534;28;20207;-95
2023/07/23 14:22:48;;;;;;;1.83;1.73;;;;;;;;;;4999155;28;20184;-94
2023/07/23 14:25:15;;;;;;;1.67;1.45;;;;;;;;;;4998979;28;20192;-94
2023/07/23 14:27:43;;;;;;;1.98;1.88;;;;;;;;;;5014001;28;20218;-94
2023/07/23 14:30:11;;;;;;;1.88;1.63;;;;;;;;;;5004527;28;20188;-94
2023/07/23 14:32:39;;;;;;;2.35;2.15;;;;;;;;;;4998883;28;20228;-94
2023/07/23 14:35:09;;;;;;;1.67;1.58;;;;;;;;;;4999002;28;20187;-94
2023/07/23 14:37:38;;;;;;;1.55;1.45;;;;;;;;;;4999269;28;20187;-94
2023/07/23 14:40:08;;;;;;;2.05;1.95;;;;;;;;;;4999251;28;20176;-93
2023/07/23 14:42:35;;;;;;;1.77;1.63;;;;;;;;;;4998917;28;20212;-94
2023/07/23 14:45:05;;;;;;;1.52;1.40;;;;;;;;;;4998886;28;20180;-94
2023/07/23 14:47:33;;;;;;;1.45;1.35;;;;;;;;;;4998912;28;20191;-92
2023/07/23 14:50:01;;;;;;;1.60;1.50;;;;;;;;;;4998671;28;20231;-94
2023/07/23 14:52:28;;;;;;;1.88;1.63;;;;;;;;;;4998035;28;20201;-93